sensor_id;sensor_type;location;lat;lon;timestamp;P1;durP1;ratioP1;P2;durP2;ratioP2
44670;SDS011;48397;53.016;-2.260;2023-06-14T00:00:11;8.88;;;5.93;;
44670;SDS011;48397;53.016;-2.260;2023-06-14T00:02:40;7.57;;;5.63;;
44670;SDS011;48397;53.016;-2.260;2023-06-14T00:05:08;16.63;;;6.45;;
44670;SDS011;48397;53.016;-2.260;2023-06-14T00:07:37;9.25;;;5.90;;
44670;SDS011;48397;53.016;-2.260;2023-06-14T00:10:14;9.43;;;5.78;;
44670;SDS011;48397;53.016;-2.260;2023-06-14T00:12:42;10.38;;;5.63;;
44670;SDS011;48397;53.016;-2.260;2023-06-14T00:17:37;11.40;;;5.55;;
44670;SDS011;48397;53.016;-2.260;2023-06-14T00:20:06;12.60;;;5.80;;
44670;SDS011;48397;53.016;-2.260;2023-06-14T00:22:35;9.10;;;5.95;;
44670;SDS011;48397;53.016;-2.260;2023-06-14T00:25:04;10.43;;;5.88;;
44670;SDS011;48397;53.016;-2.260;2023-06-14T00:27:45;10.15;;;6.15;;
44670;SDS011;48397;53.016;-2.260;2023-06-14T00:30:14;11.35;;;6.20;;
44670;SDS011;48397;53.016;-2.260;2023-06-14T00:32:43;9.93;;;5.53;;
44670;SDS011;48397;53.016;-2.260;2023-06-14T00:35:12;9.70;;;5.88;;
44670;SDS011;48397;53.016;-2.260;2023-06-14T00:37:40;12.50;;;7.18;;
44670;SDS011;48397;53.016;-2.260;2023-06-14T00:42:35;11.80;;;6.07;;
44670;SDS011;48397;53.016;-2.260;2023-06-14T00:45:03;13.82;;;6.63;;
44670;SDS011;48397;53.016;-2.260;2023-06-14T00:47:32;12.40;;;7.75;;
44670;SDS011;48397;53.016;-2.260;2023-06-14T00:52:27;7.90;;;4.82;;
44670;SDS011;48397;53.016;-2.260;2023-06-14T00:54:57;9.25;;;4.38;;
44670;SDS011;48397;53.016;-2.260;2023-06-14T00:57:24;8.90;;;4.88;;
44670;SDS011;48397;53.016;-2.260;2023-06-14T00:59:52;9.18;;;4.40;;
44670;SDS011;48397;53.016;-2.260;2023-06-14T01:02:21;8.52;;;4.00;;
44670;SDS011;48397;53.016;-2.260;2023-06-14T01:07:21;6.65;;;3.58;;
44670;SDS011;48397;53.016;-2.260;2023-06-14T01:13:12;6.00;;;3.20;;
44670;SDS011;48397;53.016;-2.260;2023-06-14T01:15:43;6.05;;;3.30;;
44670;SDS011;48397;53.016;-2.260;2023-06-14T01:18:12;6.22;;;3.50;;
44670;SDS011;48397;53.016;-2.260;2023-06-14T01:20:46;5.20;;;3.45;;
44670;SDS011;48397;53.016;-2.260;2023-06-14T01:23:18;5.55;;;3.20;;
44670;SDS011;48397;53.016;-2.260;2023-06-14T01:25:47;5.82;;;3.47;;
44670;SDS011;48397;53.016;-2.260;2023-06-14T01:28:20;6.88;;;3.20;;
44670;SDS011;48397;53.016;-2.260;2023-06-14T01:30:49;7.10;;;3.83;;
44670;SDS011;48397;53.016;-2.260;2023-06-14T01:33:21;7.78;;;3.60;;
44670;SDS011;48397;53.016;-2.260;2023-06-14T01:35:51;7.50;;;3.72;;
44670;SDS011;48397;53.016;-2.260;2023-06-14T01:38:21;7.05;;;3.33;;
44670;SDS011;48397;53.016;-2.260;2023-06-14T01:40:51;7.47;;;3.40;;
44670;SDS011;48397;53.016;-2.260;2023-06-14T01:43:25;6.95;;;3.55;;
44670;SDS011;48397;53.016;-2.260;2023-06-14T01:45:54;5.53;;;3.33;;
44670;SDS011;48397;53.016;-2.260;2023-06-14T01:48:23;8.50;;;3.85;;
44670;SDS011;48397;53.016;-2.260;2023-06-14T01:53:20;9.88;;;3.67;;
44670;SDS011;48397;53.016;-2.260;2023-06-14T01:55:47;7.47;;;3.53;;
44670;SDS011;48397;53.016;-2.260;2023-06-14T01:58:16;9.05;;;3.70;;
44670;SDS011;48397;53.016;-2.260;2023-06-14T02:00:44;7.50;;;3.33;;
44670;SDS011;48397;53.016;-2.260;2023-06-14T02:03:14;6.85;;;3.72;;
44670;SDS011;48397;53.016;-2.260;2023-06-14T02:05:42;8.85;;;3.88;;
44670;SDS011;48397;53.016;-2.260;2023-06-14T02:08:10;11.80;;;4.25;;
44670;SDS011;48397;53.016;-2.260;2023-06-14T02:10:38;8.73;;;3.60;;
44670;SDS011;48397;53.016;-2.260;2023-06-14T02:13:06;7.60;;;3.75;;
44670;SDS011;48397;53.016;-2.260;2023-06-14T02:15:34;9.38;;;3.80;;
44670;SDS011;48397;53.016;-2.260;2023-06-14T02:20:32;8.27;;;3.63;;
44670;SDS011;48397;53.016;-2.260;2023-06-14T02:23:00;7.93;;;4.07;;
44670;SDS011;48397;53.016;-2.260;2023-06-14T02:25:31;7.80;;;3.85;;
44670;SDS011;48397;53.016;-2.260;2023-06-14T02:27:59;11.23;;;4.90;;
44670;SDS011;48397;53.016;-2.260;2023-06-14T02:30:27;12.13;;;5.03;;
44670;SDS011;48397;53.016;-2.260;2023-06-14T02:32:56;15.70;;;6.05;;
44670;SDS011;48397;53.016;-2.260;2023-06-14T02:35:24;10.57;;;5.03;;
44670;SDS011;48397;53.016;-2.260;2023-06-14T02:37:55;13.18;;;5.15;;
44670;SDS011;48397;53.016;-2.260;2023-06-14T02:42:51;11.00;;;4.68;;
44670;SDS011;48397;53.016;-2.260;2023-06-14T02:45:19;10.82;;;4.70;;
44670;SDS011;48397;53.016;-2.260;2023-06-14T02:47:48;13.45;;;5.57;;
44670;SDS011;48397;53.016;-2.260;2023-06-14T02:50:15;10.30;;;5.03;;
44670;SDS011;48397;53.016;-2.260;2023-06-14T02:52:44;9.05;;;5.10;;
44670;SDS011;48397;53.016;-2.260;2023-06-14T02:55:12;10.30;;;5.40;;
44670;SDS011;48397;53.016;-2.260;2023-06-14T02:57:41;12.65;;;5.50;;
44670;SDS011;48397;53.016;-2.260;2023-06-14T03:00:10;11.23;;;4.82;;
44670;SDS011;48397;53.016;-2.260;2023-06-14T03:02:43;10.02;;;5.00;;
44670;SDS011;48397;53.016;-2.260;2023-06-14T03:05:12;10.35;;;5.10;;
44670;SDS011;48397;53.016;-2.260;2023-06-14T03:07:41;9.40;;;5.03;;
44670;SDS011;48397;53.016;-2.260;2023-06-14T03:10:12;10.68;;;5.05;;
44670;SDS011;48397;53.016;-2.260;2023-06-14T03:12:43;11.07;;;4.95;;
44670;SDS011;48397;53.016;-2.260;2023-06-14T03:15:12;14.00;;;5.43;;
44670;SDS011;48397;53.016;-2.260;2023-06-14T03:17:45;9.45;;;4.57;;
44670;SDS011;48397;53.016;-2.260;2023-06-14T03:20:15;14.40;;;5.38;;
44670;SDS011;48397;53.016;-2.260;2023-06-14T03:22:46;12.20;;;6.07;;
44670;SDS011;48397;53.016;-2.260;2023-06-14T03:25:15;13.15;;;6.05;;
44670;SDS011;48397;53.016;-2.260;2023-06-14T03:27:45;13.27;;;5.63;;
44670;SDS011;48397;53.016;-2.260;2023-06-14T03:30:13;11.95;;;5.20;;
44670;SDS011;48397;53.016;-2.260;2023-06-14T03:32:45;12.80;;;5.53;;
44670;SDS011;48397;53.016;-2.260;2023-06-14T03:35:14;10.13;;;5.50;;
44670;SDS011;48397;53.016;-2.260;2023-06-14T03:37:47;9.43;;;4.95;;
44670;SDS011;48397;53.016;-2.260;2023-06-14T03:42:47;8.82;;;5.00;;
44670;SDS011;48397;53.016;-2.260;2023-06-14T03:45:15;10.63;;;5.95;;
44670;SDS011;48397;53.016;-2.260;2023-06-14T03:47:43;13.85;;;5.90;;
44670;SDS011;48397;53.016;-2.260;2023-06-14T03:50:12;8.73;;;5.97;;
44670;SDS011;48397;53.016;-2.260;2023-06-14T03:52:41;10.55;;;5.80;;
44670;SDS011;48397;53.016;-2.260;2023-06-14T03:55:12;9.60;;;5.72;;
44670;SDS011;48397;53.016;-2.260;2023-06-14T03:57:44;9.55;;;4.90;;
44670;SDS011;48397;53.016;-2.260;2023-06-14T04:00:16;12.43;;;5.13;;
44670;SDS011;48397;53.016;-2.260;2023-06-14T04:02:45;8.15;;;4.47;;
44670;SDS011;48397;53.016;-2.260;2023-06-14T04:05:13;11.20;;;5.60;;
44670;SDS011;48397;53.016;-2.260;2023-06-14T04:07:48;9.38;;;5.47;;
44670;SDS011;48397;53.016;-2.260;2023-06-14T04:10:17;10.07;;;5.18;;
44670;SDS011;48397;53.016;-2.260;2023-06-14T04:12:47;11.88;;;5.55;;
44670;SDS011;48397;53.016;-2.260;2023-06-14T04:15:17;11.25;;;5.28;;
44670;SDS011;48397;53.016;-2.260;2023-06-14T04:17:49;10.88;;;5.88;;
44670;SDS011;48397;53.016;-2.260;2023-06-14T04:20:19;10.68;;;5.93;;
44670;SDS011;48397;53.016;-2.260;2023-06-14T04:22:49;12.75;;;6.57;;
44670;SDS011;48397;53.016;-2.260;2023-06-14T04:27:50;12.82;;;6.47;;
44670;SDS011;48397;53.016;-2.260;2023-06-14T04:30:20;10.30;;;6.15;;
44670;SDS011;48397;53.016;-2.260;2023-06-14T04:32:54;12.50;;;6.32;;
44670;SDS011;48397;53.016;-2.260;2023-06-14T04:35:24;14.73;;;7.00;;
44670;SDS011;48397;53.016;-2.260;2023-06-14T04:37:54;12.30;;;6.90;;
44670;SDS011;48397;53.016;-2.260;2023-06-14T04:40:22;10.90;;;6.78;;
44670;SDS011;48397;53.016;-2.260;2023-06-14T04:42:50;14.00;;;7.25;;
44670;SDS011;48397;53.016;-2.260;2023-06-14T04:45:19;12.27;;;5.80;;
44670;SDS011;48397;53.016;-2.260;2023-06-14T04:47:47;11.32;;;5.38;;
44670;SDS011;48397;53.016;-2.260;2023-06-14T04:52:43;13.02;;;5.90;;
44670;SDS011;48397;53.016;-2.260;2023-06-14T04:55:11;10.40;;;5.70;;
44670;SDS011;48397;53.016;-2.260;2023-06-14T04:57:41;13.70;;;6.20;;
44670;SDS011;48397;53.016;-2.260;2023-06-14T05:00:10;11.75;;;6.05;;
44670;SDS011;48397;53.016;-2.260;2023-06-14T05:02:40;11.35;;;5.97;;
44670;SDS011;48397;53.016;-2.260;2023-06-14T05:05:08;12.82;;;5.60;;
44670;SDS011;48397;53.016;-2.260;2023-06-14T05:07:36;10.63;;;5.22;;
44670;SDS011;48397;53.016;-2.260;2023-06-14T05:10:08;11.50;;;5.70;;
44670;SDS011;48397;53.016;-2.260;2023-06-14T05:12:37;10.63;;;5.60;;
44670;SDS011;48397;53.016;-2.260;2023-06-14T05:15:07;11.93;;;6.00;;
44670;SDS011;48397;53.016;-2.260;2023-06-14T05:17:39;14.07;;;5.82;;
44670;SDS011;48397;53.016;-2.260;2023-06-14T05:20:07;10.57;;;5.70;;
44670;SDS011;48397;53.016;-2.260;2023-06-14T05:22:37;16.58;;;5.32;;
44670;SDS011;48397;53.016;-2.260;2023-06-14T05:25:05;10.50;;;5.32;;
44670;SDS011;48397;53.016;-2.260;2023-06-14T05:30:02;10.98;;;4.97;;
44670;SDS011;48397;53.016;-2.260;2023-06-14T05:32:31;13.20;;;5.75;;
44670;SDS011;48397;53.016;-2.260;2023-06-14T05:34:59;12.18;;;5.15;;
44670;SDS011;48397;53.016;-2.260;2023-06-14T05:39:54;8.70;;;4.97;;
44670;SDS011;48397;53.016;-2.260;2023-06-14T05:42:22;12.00;;;5.32;;
44670;SDS011;48397;53.016;-2.260;2023-06-14T05:44:50;9.10;;;4.60;;
44670;SDS011;48397;53.016;-2.260;2023-06-14T05:47:18;7.88;;;4.20;;
44670;SDS011;48397;53.016;-2.260;2023-06-14T05:52:13;9.73;;;5.00;;
44670;SDS011;48397;53.016;-2.260;2023-06-14T05:54:41;12.15;;;4.72;;
44670;SDS011;48397;53.016;-2.260;2023-06-14T05:57:10;8.43;;;4.45;;
44670;SDS011;48397;53.016;-2.260;2023-06-14T05:59:37;9.65;;;4.15;;
44670;SDS011;48397;53.016;-2.260;2023-06-14T06:02:06;8.43;;;4.15;;
44670;SDS011;48397;53.016;-2.260;2023-06-14T06:07:02;9.43;;;4.10;;
44670;SDS011;48397;53.016;-2.260;2023-06-14T06:09:30;10.73;;;4.30;;
44670;SDS011;48397;53.016;-2.260;2023-06-14T06:11:59;7.65;;;4.25;;
44670;SDS011;48397;53.016;-2.260;2023-06-14T06:14:26;7.70;;;4.03;;
44670;SDS011;48397;53.016;-2.260;2023-06-14T06:21:50;8.25;;;4.07;;
44670;SDS011;48397;53.016;-2.260;2023-06-14T06:24:18;8.27;;;4.10;;
44670;SDS011;48397;53.016;-2.260;2023-06-14T06:26:46;12.80;;;4.28;;
44670;SDS011;48397;53.016;-2.260;2023-06-14T06:29:13;10.25;;;3.45;;
44670;SDS011;48397;53.016;-2.260;2023-06-14T06:34:09;7.85;;;3.20;;
44670;SDS011;48397;53.016;-2.260;2023-06-14T06:36:37;7.07;;;3.10;;
44670;SDS011;48397;53.016;-2.260;2023-06-14T06:39:04;11.32;;;3.40;;
44670;SDS011;48397;53.016;-2.260;2023-06-14T06:41:37;7.68;;;3.95;;
44670;SDS011;48397;53.016;-2.260;2023-06-14T06:44:07;7.10;;;3.38;;
44670;SDS011;48397;53.016;-2.260;2023-06-14T06:46:38;5.55;;;3.50;;
44670;SDS011;48397;53.016;-2.260;2023-06-14T06:49:08;6.90;;;3.60;;
44670;SDS011;48397;53.016;-2.260;2023-06-14T06:51:41;9.00;;;3.72;;
44670;SDS011;48397;53.016;-2.260;2023-06-14T06:54:10;11.65;;;3.63;;
44670;SDS011;48397;53.016;-2.260;2023-06-14T06:56:38;6.90;;;3.50;;
44670;SDS011;48397;53.016;-2.260;2023-06-14T06:59:05;8.60;;;4.03;;
44670;SDS011;48397;53.016;-2.260;2023-06-14T07:04:03;7.28;;;3.40;;
44670;SDS011;48397;53.016;-2.260;2023-06-14T07:06:31;7.22;;;3.25;;
44670;SDS011;48397;53.016;-2.260;2023-06-14T07:08:58;9.63;;;3.50;;
44670;SDS011;48397;53.016;-2.260;2023-06-14T07:11:28;6.20;;;3.03;;
44670;SDS011;48397;53.016;-2.260;2023-06-14T07:13:56;7.10;;;3.50;;
44670;SDS011;48397;53.016;-2.260;2023-06-14T07:16:24;7.63;;;3.63;;
44670;SDS011;48397;53.016;-2.260;2023-06-14T07:18:52;7.25;;;3.33;;
44670;SDS011;48397;53.016;-2.260;2023-06-14T07:21:21;10.20;;;3.22;;
44670;SDS011;48397;53.016;-2.260;2023-06-14T07:26:16;7.45;;;3.65;;
44670;SDS011;48397;53.016;-2.260;2023-06-14T07:28:45;7.85;;;3.33;;
44670;SDS011;48397;53.016;-2.260;2023-06-14T07:31:15;12.10;;;3.33;;
44670;SDS011;48397;53.016;-2.260;2023-06-14T07:33:44;7.38;;;3.22;;
44670;SDS011;48397;53.016;-2.260;2023-06-14T07:36:13;6.80;;;3.33;;
44670;SDS011;48397;53.016;-2.260;2023-06-14T07:38:41;7.80;;;3.80;;
44670;SDS011;48397;53.016;-2.260;2023-06-14T07:43:51;10.43;;;3.40;;
44670;SDS011;48397;53.016;-2.260;2023-06-14T07:46:19;8.35;;;3.40;;
44670;SDS011;48397;53.016;-2.260;2023-06-14T07:48:47;5.07;;;3.15;;
44670;SDS011;48397;53.016;-2.260;2023-06-14T07:51:16;5.38;;;2.45;;
44670;SDS011;48397;53.016;-2.260;2023-06-14T07:53:43;7.70;;;3.05;;
44670;SDS011;48397;53.016;-2.260;2023-06-14T07:58:39;6.57;;;2.47;;
44670;SDS011;48397;53.016;-2.260;2023-06-14T08:01:07;7.13;;;3.00;;
44670;SDS011;48397;53.016;-2.260;2023-06-14T08:03:35;6.07;;;3.33;;
44670;SDS011;48397;53.016;-2.260;2023-06-14T08:06:04;8.10;;;3.60;;
44670;SDS011;48397;53.016;-2.260;2023-06-14T08:08:32;8.13;;;3.65;;
44670;SDS011;48397;53.016;-2.260;2023-06-14T08:11:00;8.30;;;3.35;;
44670;SDS011;48397;53.016;-2.260;2023-06-14T08:18:24;6.50;;;3.45;;
44670;SDS011;48397;53.016;-2.260;2023-06-14T08:23:21;6.57;;;3.50;;
44670;SDS011;48397;53.016;-2.260;2023-06-14T08:28:16;7.13;;;3.60;;
44670;SDS011;48397;53.016;-2.260;2023-06-14T08:30:44;6.22;;;3.45;;
44670;SDS011;48397;53.016;-2.260;2023-06-14T08:33:12;5.65;;;3.25;;
44670;SDS011;48397;53.016;-2.260;2023-06-14T08:35:44;9.57;;;3.67;;
44670;SDS011;48397;53.016;-2.260;2023-06-14T08:38:12;9.85;;;3.60;;
44670;SDS011;48397;53.016;-2.260;2023-06-14T08:40:41;3.70;;;2.20;;
44670;SDS011;48397;53.016;-2.260;2023-06-14T08:43:09;7.63;;;3.80;;
44670;SDS011;48397;53.016;-2.260;2023-06-14T08:48:05;11.30;;;5.90;;
44670;SDS011;48397;53.016;-2.260;2023-06-14T08:50:34;7.43;;;4.05;;
44670;SDS011;48397;53.016;-2.260;2023-06-14T08:53:07;8.57;;;4.10;;
44670;SDS011;48397;53.016;-2.260;2023-06-14T08:55:37;14.80;;;4.95;;
44670;SDS011;48397;53.016;-2.260;2023-06-14T08:58:09;11.48;;;5.60;;
44670;SDS011;48397;53.016;-2.260;2023-06-14T09:00:41;13.80;;;3.45;;
44670;SDS011;48397;53.016;-2.260;2023-06-14T09:03:10;7.97;;;3.20;;
44670;SDS011;48397;53.016;-2.260;2023-06-14T09:05:42;9.15;;;3.95;;
44670;SDS011;48397;53.016;-2.260;2023-06-14T09:08:11;9.43;;;3.75;;
44670;SDS011;48397;53.016;-2.260;2023-06-14T09:10:39;9.95;;;4.18;;
44670;SDS011;48397;53.016;-2.260;2023-06-14T09:13:08;9.32;;;3.92;;
44670;SDS011;48397;53.016;-2.260;2023-06-14T09:15:36;10.75;;;4.03;;
44670;SDS011;48397;53.016;-2.260;2023-06-14T09:18:04;8.18;;;3.53;;
44670;SDS011;48397;53.016;-2.260;2023-06-14T09:20:33;10.70;;;3.95;;
44670;SDS011;48397;53.016;-2.260;2023-06-14T09:23:01;9.10;;;4.15;;
44670;SDS011;48397;53.016;-2.260;2023-06-14T09:25:39;9.15;;;3.50;;
44670;SDS011;48397;53.016;-2.260;2023-06-14T09:28:10;8.23;;;3.70;;
44670;SDS011;48397;53.016;-2.260;2023-06-14T09:30:38;9.85;;;3.85;;
44670;SDS011;48397;53.016;-2.260;2023-06-14T09:33:06;7.43;;;3.88;;
44670;SDS011;48397;53.016;-2.260;2023-06-14T09:40:29;5.68;;;3.40;;
44670;SDS011;48397;53.016;-2.260;2023-06-14T09:43:01;8.27;;;4.38;;
44670;SDS011;48397;53.016;-2.260;2023-06-14T09:45:40;11.70;;;4.68;;
44670;SDS011;48397;53.016;-2.260;2023-06-14T09:48:12;8.60;;;4.00;;
44670;SDS011;48397;53.016;-2.260;2023-06-14T09:50:45;6.72;;;3.78;;
44670;SDS011;48397;53.016;-2.260;2023-06-14T09:53:14;8.00;;;4.38;;
44670;SDS011;48397;53.016;-2.260;2023-06-14T09:55:43;8.82;;;4.13;;
44670;SDS011;48397;53.016;-2.260;2023-06-14T09:58:12;8.65;;;4.03;;
44670;SDS011;48397;53.016;-2.260;2023-06-14T10:00:43;10.48;;;3.95;;
44670;SDS011;48397;53.016;-2.260;2023-06-14T10:03:13;8.93;;;4.20;;
44670;SDS011;48397;53.016;-2.260;2023-06-14T10:05:45;6.47;;;3.97;;
44670;SDS011;48397;53.016;-2.260;2023-06-14T10:08:19;13.00;;;4.57;;
44670;SDS011;48397;53.016;-2.260;2023-06-14T10:10:53;6.90;;;3.83;;
44670;SDS011;48397;53.016;-2.260;2023-06-14T10:13:22;8.10;;;3.80;;
44670;SDS011;48397;53.016;-2.260;2023-06-14T10:16:04;10.98;;;4.40;;
44670;SDS011;48397;53.016;-2.260;2023-06-14T10:21:57;7.88;;;4.43;;
44670;SDS011;48397;53.016;-2.260;2023-06-14T10:24:33;9.48;;;4.13;;
44670;SDS011;48397;53.016;-2.260;2023-06-14T10:32:25;7.18;;;4.40;;
44670;SDS011;48397;53.016;-2.260;2023-06-14T10:37:23;9.75;;;4.47;;
44670;SDS011;48397;53.016;-2.260;2023-06-14T10:39:52;7.43;;;4.00;;
44670;SDS011;48397;53.016;-2.260;2023-06-14T10:42:23;11.50;;;4.88;;
44670;SDS011;48397;53.016;-2.260;2023-06-14T10:45:01;8.38;;;4.07;;
44670;SDS011;48397;53.016;-2.260;2023-06-14T10:47:34;8.68;;;4.32;;
44670;SDS011;48397;53.016;-2.260;2023-06-14T10:50:10;10.52;;;4.53;;
44670;SDS011;48397;53.016;-2.260;2023-06-14T10:55:13;7.18;;;4.28;;
44670;SDS011;48397;53.016;-2.260;2023-06-14T11:00:20;9.43;;;4.38;;
44670;SDS011;48397;53.016;-2.260;2023-06-14T11:05:53;8.88;;;4.70;;
44670;SDS011;48397;53.016;-2.260;2023-06-14T11:10:50;7.25;;;3.90;;
44670;SDS011;48397;53.016;-2.260;2023-06-14T11:13:21;9.35;;;4.20;;
44670;SDS011;48397;53.016;-2.260;2023-06-14T11:15:52;7.22;;;4.25;;
44670;SDS011;48397;53.016;-2.260;2023-06-14T11:18:21;7.60;;;4.60;;
44670;SDS011;48397;53.016;-2.260;2023-06-14T11:20:52;9.52;;;4.93;;
44670;SDS011;48397;53.016;-2.260;2023-06-14T11:23:21;10.43;;;4.50;;
44670;SDS011;48397;53.016;-2.260;2023-06-14T11:25:50;8.40;;;4.30;;
44670;SDS011;48397;53.016;-2.260;2023-06-14T11:28:19;11.55;;;4.20;;
44670;SDS011;48397;53.016;-2.260;2023-06-14T11:30:49;12.27;;;4.57;;
44670;SDS011;48397;53.016;-2.260;2023-06-14T11:33:27;9.25;;;4.50;;
44670;SDS011;48397;53.016;-2.260;2023-06-14T11:38:23;8.15;;;4.30;;
44670;SDS011;48397;53.016;-2.260;2023-06-14T11:40:51;11.70;;;4.60;;
44670;SDS011;48397;53.016;-2.260;2023-06-14T11:45:50;8.55;;;4.40;;
44670;SDS011;48397;53.016;-2.260;2023-06-14T11:48:40;10.52;;;4.47;;
44670;SDS011;48397;53.016;-2.260;2023-06-14T11:51:09;10.65;;;4.57;;
44670;SDS011;48397;53.016;-2.260;2023-06-14T11:53:38;8.07;;;4.63;;
44670;SDS011;48397;53.016;-2.260;2023-06-14T11:56:06;8.25;;;4.25;;
44670;SDS011;48397;53.016;-2.260;2023-06-14T11:58:34;9.13;;;4.75;;
44670;SDS011;48397;53.016;-2.260;2023-06-14T12:01:05;8.15;;;4.75;;
44670;SDS011;48397;53.016;-2.260;2023-06-14T12:03:33;9.55;;;4.65;;
44670;SDS011;48397;53.016;-2.260;2023-06-14T12:06:06;6.25;;;3.63;;
44670;SDS011;48397;53.016;-2.260;2023-06-14T12:08:36;8.40;;;4.35;;
44670;SDS011;48397;53.016;-2.260;2023-06-14T12:11:12;8.30;;;4.47;;
44670;SDS011;48397;53.016;-2.260;2023-06-14T12:13:41;9.32;;;4.05;;
44670;SDS011;48397;53.016;-2.260;2023-06-14T12:16:10;8.55;;;4.40;;
44670;SDS011;48397;53.016;-2.260;2023-06-14T12:18:39;8.20;;;4.53;;
44670;SDS011;48397;53.016;-2.260;2023-06-14T12:21:09;8.50;;;4.63;;
44670;SDS011;48397;53.016;-2.260;2023-06-14T12:23:44;8.63;;;4.60;;
44670;SDS011;48397;53.016;-2.260;2023-06-14T12:26:17;8.90;;;4.60;;
44670;SDS011;48397;53.016;-2.260;2023-06-14T12:28:47;9.73;;;4.90;;
44670;SDS011;48397;53.016;-2.260;2023-06-14T12:31:15;10.30;;;5.00;;
44670;SDS011;48397;53.016;-2.260;2023-06-14T12:33:43;7.25;;;4.63;;
44670;SDS011;48397;53.016;-2.260;2023-06-14T12:36:16;7.25;;;4.20;;
44670;SDS011;48397;53.016;-2.260;2023-06-14T12:38:44;8.60;;;4.65;;
44670;SDS011;48397;53.016;-2.260;2023-06-14T12:41:13;9.35;;;4.78;;
44670;SDS011;48397;53.016;-2.260;2023-06-14T12:43:41;13.88;;;5.00;;
44670;SDS011;48397;53.016;-2.260;2023-06-14T12:46:09;6.50;;;4.45;;
44670;SDS011;48397;53.016;-2.260;2023-06-14T12:48:37;8.18;;;4.90;;
44670;SDS011;48397;53.016;-2.260;2023-06-14T12:51:05;10.32;;;4.65;;
44670;SDS011;48397;53.016;-2.260;2023-06-14T12:53:33;9.27;;;4.57;;
44670;SDS011;48397;53.016;-2.260;2023-06-14T12:56:01;8.20;;;4.25;;
44670;SDS011;48397;53.016;-2.260;2023-06-14T12:58:29;7.75;;;4.75;;
44670;SDS011;48397;53.016;-2.260;2023-06-14T13:00:56;9.45;;;4.90;;
44670;SDS011;48397;53.016;-2.260;2023-06-14T13:03:24;8.75;;;4.75;;
44670;SDS011;48397;53.016;-2.260;2023-06-14T13:05:52;10.30;;;4.93;;
44670;SDS011;48397;53.016;-2.260;2023-06-14T13:08:20;9.20;;;4.55;;
44670;SDS011;48397;53.016;-2.260;2023-06-14T13:10:51;6.47;;;4.53;;
44670;SDS011;48397;53.016;-2.260;2023-06-14T13:13:19;7.20;;;4.43;;
44670;SDS011;48397;53.016;-2.260;2023-06-14T13:15:47;7.97;;;4.50;;
44670;SDS011;48397;53.016;-2.260;2023-06-14T13:18:17;8.70;;;4.80;;
44670;SDS011;48397;53.016;-2.260;2023-06-14T13:20:45;11.18;;;4.32;;
44670;SDS011;48397;53.016;-2.260;2023-06-14T13:23:15;11.13;;;4.80;;
44670;SDS011;48397;53.016;-2.260;2023-06-14T13:25:43;9.02;;;4.80;;
44670;SDS011;48397;53.016;-2.260;2023-06-14T13:28:11;10.82;;;4.55;;
44670;SDS011;48397;53.016;-2.260;2023-06-14T13:30:39;10.18;;;4.80;;
44670;SDS011;48397;53.016;-2.260;2023-06-14T13:33:07;9.68;;;4.70;;
44670;SDS011;48397;53.016;-2.260;2023-06-14T13:35:34;9.25;;;4.80;;
44670;SDS011;48397;53.016;-2.260;2023-06-14T13:38:02;6.97;;;4.53;;
44670;SDS011;48397;53.016;-2.260;2023-06-14T13:40:30;8.73;;;4.97;;
44670;SDS011;48397;53.016;-2.260;2023-06-14T13:42:57;8.35;;;4.72;;
44670;SDS011;48397;53.016;-2.260;2023-06-14T13:45:25;9.05;;;4.43;;
44670;SDS011;48397;53.016;-2.260;2023-06-14T13:47:53;6.85;;;4.47;;
44670;SDS011;48397;53.016;-2.260;2023-06-14T13:50:22;7.18;;;4.90;;
44670;SDS011;48397;53.016;-2.260;2023-06-14T13:52:49;8.65;;;4.72;;
44670;SDS011;48397;53.016;-2.260;2023-06-14T13:55:17;12.07;;;4.78;;
44670;SDS011;48397;53.016;-2.260;2023-06-14T13:57:45;9.48;;;5.18;;
44670;SDS011;48397;53.016;-2.260;2023-06-14T14:00:13;9.90;;;4.55;;
44670;SDS011;48397;53.016;-2.260;2023-06-14T14:02:41;10.32;;;4.78;;
44670;SDS011;48397;53.016;-2.260;2023-06-14T14:05:10;7.53;;;4.47;;
44670;SDS011;48397;53.016;-2.260;2023-06-14T14:07:37;8.80;;;4.57;;
44670;SDS011;48397;53.016;-2.260;2023-06-14T14:10:06;9.55;;;4.80;;
44670;SDS011;48397;53.016;-2.260;2023-06-14T14:12:35;7.38;;;4.65;;
44670;SDS011;48397;53.016;-2.260;2023-06-14T14:15:06;10.43;;;4.57;;
44670;SDS011;48397;53.016;-2.260;2023-06-14T14:17:40;8.32;;;4.85;;
44670;SDS011;48397;53.016;-2.260;2023-06-14T14:20:09;7.18;;;4.57;;
44670;SDS011;48397;53.016;-2.260;2023-06-14T14:22:41;7.82;;;4.40;;
44670;SDS011;48397;53.016;-2.260;2023-06-14T14:25:10;7.05;;;4.55;;
44670;SDS011;48397;53.016;-2.260;2023-06-14T14:27:38;7.65;;;4.18;;
44670;SDS011;48397;53.016;-2.260;2023-06-14T14:30:07;9.48;;;5.22;;
44670;SDS011;48397;53.016;-2.260;2023-06-14T14:32:35;8.73;;;4.78;;
44670;SDS011;48397;53.016;-2.260;2023-06-14T14:35:02;9.80;;;5.18;;
44670;SDS011;48397;53.016;-2.260;2023-06-14T14:37:31;10.57;;;4.53;;
44670;SDS011;48397;53.016;-2.260;2023-06-14T14:39:59;9.43;;;4.60;;
44670;SDS011;48397;53.016;-2.260;2023-06-14T14:42:27;8.63;;;4.63;;
44670;SDS011;48397;53.016;-2.260;2023-06-14T14:44:55;9.88;;;4.35;;
44670;SDS011;48397;53.016;-2.260;2023-06-14T14:47:23;7.13;;;4.13;;
44670;SDS011;48397;53.016;-2.260;2023-06-14T14:49:51;7.10;;;4.60;;
44670;SDS011;48397;53.016;-2.260;2023-06-14T14:52:19;7.90;;;4.50;;
44670;SDS011;48397;53.016;-2.260;2023-06-14T14:54:50;7.20;;;4.53;;
44670;SDS011;48397;53.016;-2.260;2023-06-14T14:57:18;9.57;;;4.78;;
44670;SDS011;48397;53.016;-2.260;2023-06-14T14:59:46;10.35;;;4.63;;
44670;SDS011;48397;53.016;-2.260;2023-06-14T15:02:13;7.93;;;4.40;;
44670;SDS011;48397;53.016;-2.260;2023-06-14T15:04:41;7.13;;;4.40;;
44670;SDS011;48397;53.016;-2.260;2023-06-14T15:07:09;9.77;;;4.30;;
44670;SDS011;48397;53.016;-2.260;2023-06-14T15:09:37;8.13;;;4.57;;
44670;SDS011;48397;53.016;-2.260;2023-06-14T15:12:05;8.20;;;4.60;;
44670;SDS011;48397;53.016;-2.260;2023-06-14T15:14:34;7.65;;;4.53;;
44670;SDS011;48397;53.016;-2.260;2023-06-14T15:17:02;7.97;;;4.90;;
44670;SDS011;48397;53.016;-2.260;2023-06-14T15:19:33;7.60;;;4.50;;
44670;SDS011;48397;53.016;-2.260;2023-06-14T15:22:03;11.15;;;4.78;;
44670;SDS011;48397;53.016;-2.260;2023-06-14T15:24:33;12.63;;;5.00;;
44670;SDS011;48397;53.016;-2.260;2023-06-14T15:27:11;8.57;;;4.47;;
44670;SDS011;48397;53.016;-2.260;2023-06-14T15:29:42;8.70;;;5.00;;
44670;SDS011;48397;53.016;-2.260;2023-06-14T15:32:12;8.18;;;4.60;;
44670;SDS011;48397;53.016;-2.260;2023-06-14T15:34:40;6.60;;;4.70;;
44670;SDS011;48397;53.016;-2.260;2023-06-14T15:37:08;7.80;;;4.20;;
44670;SDS011;48397;53.016;-2.260;2023-06-14T15:39:35;9.23;;;4.47;;
44670;SDS011;48397;53.016;-2.260;2023-06-14T15:42:03;7.93;;;4.47;;
44670;SDS011;48397;53.016;-2.260;2023-06-14T15:44:32;7.35;;;4.03;;
44670;SDS011;48397;53.016;-2.260;2023-06-14T15:47:00;8.55;;;4.28;;
44670;SDS011;48397;53.016;-2.260;2023-06-14T15:49:28;8.55;;;4.18;;
44670;SDS011;48397;53.016;-2.260;2023-06-14T15:51:56;8.98;;;4.50;;
44670;SDS011;48397;53.016;-2.260;2023-06-14T15:54:24;8.73;;;4.82;;
44670;SDS011;48397;53.016;-2.260;2023-06-14T15:56:52;7.22;;;4.35;;
44670;SDS011;48397;53.016;-2.260;2023-06-14T15:59:20;5.25;;;3.95;;
44670;SDS011;48397;53.016;-2.260;2023-06-14T16:01:47;6.93;;;4.30;;
44670;SDS011;48397;53.016;-2.260;2023-06-14T16:04:15;10.85;;;5.22;;
44670;SDS011;48397;53.016;-2.260;2023-06-14T16:06:43;11.13;;;4.30;;
44670;SDS011;48397;53.016;-2.260;2023-06-14T16:09:11;5.93;;;4.43;;
44670;SDS011;48397;53.016;-2.260;2023-06-14T16:11:39;7.57;;;4.60;;
44670;SDS011;48397;53.016;-2.260;2023-06-14T16:14:08;7.50;;;4.38;;
44670;SDS011;48397;53.016;-2.260;2023-06-14T16:22:53;8.85;;;4.43;;
44670;SDS011;48397;53.016;-2.260;2023-06-14T16:25:21;8.77;;;4.55;;
44670;SDS011;48397;53.016;-2.260;2023-06-14T16:27:50;8.05;;;4.40;;